Time,TemperatureF,DewpointF,PressureIn,WindDirection,WindDirectionDegrees,WindSpeedMPH,WindSpeedGustMPH,Humidity,HourlyPrecipIn,Conditions,Clouds,dailyrainin,SolarRadiationWatts/m^2,SoftwareType,DateUTC
2013-03-08 00:03:00,40.7,37.1,29.61,NW,317,3.5,3.5,87,0.00,RA,OVC,0.00,0.0,WeatherDisplay:10.37,2013-03-08 00:03:00,
2013-03-08 00:08:00,40.7,37.1,29.61,WNW,292,6.9,6.9,87,0.00,RA,OVC,0.00,0.0,WeatherDisplay:10.37,2013-03-08 00:08:00,
2013-03-08 00:13:00,40.6,37.0,29.61,NNE,12,8.1,8.1,87,0.00,OVC,,0.00,0.0,WeatherDisplay:10.37,2013-03-08 00:13:00,
2013-03-08 00:18:00,40.6,37.0,29.61,ESE,123,3.5,3.5,87,0.00,OVC,,0.00,0.0,WeatherDisplay:10.37,2013-03-08 00:18:00,
2013-03-08 00:23:00,40.6,37.0,29.61,North,360,2.3,2.3,87,0.00,OVC,,0.00,0.0,WeatherDisplay:10.37,2013-03-08 00:23:00,
2013-03-08 00:28:00,40.6,37.0,29.61,SE,143,3.5,3.5,87,0.00,OVC,,0.00,0.0,WeatherDisplay:10.37,2013-03-08 00:28:00,
2013-03-08 00:33:00,40.6,36.7,29.61,SW,215,3.5,3.5,86,0.00,OVC,,0.00,0.0,WeatherDisplay:10.37,2013-03-08 00:33:00,
2013-03-08 00:38:00,40.6,36.7,29.61,NE,45,6.9,6.9,86,0.00,OVC,,0.00,0.0,WeatherDisplay:10.37,2013-03-08 00:38:00,
2013-03-08 00:43:00,40.6,36.7,29.61,SE,138,5.8,5.8,86,0.00,OVC,,0.00,0.0,WeatherDisplay:10.37,2013-03-08 00:43:00,
2013-03-08 00:48:00,40.6,36.7,29.61,SE,124,3.5,3.5,86,0.00,OVC,,0.00,0.0,WeatherDisplay:10.37,2013-03-08 00:48:00,
2013-03-08 00:53:00,40.6,36.7,29.61,East,100,8.1,8.1,86,0.00,OVC,,0.00,0.0,WeatherDisplay:10.37,2013-03-08 00:53:00,
2013-03-08 00:58:00,40.6,36.4,29.61,WSW,238,4.6,4.6,85,0.00,OVC,,0.00,0.0,WeatherDisplay:10.37,2013-03-08 00:58:00,
2013-03-08 01:03:00,40.6,36.4,29.61,SSE,148,6.9,6.9,85,0.00,OVC,,0.00,0.0,WeatherDisplay:10.37,2013-03-08 01:03:00,
2013-03-08 01:08:00,40.7,36.8,29.61,ENE,67,3.5,3.5,86,0.00,OVC,,0.00,0.0,WeatherDisplay:10.37,2013-03-08 01:08:00,
2013-03-08 01:13:00,40.6,36.7,29.61,WNW,297,3.5,3.5,86,0.00,OVC,,0.00,0.0,WeatherDisplay:10.37,2013-03-08 01:13:00,
2013-03-08 01:18:00,40.6,36.7,29.61,West,276,3.5,3.5,86,0.00,OVC,,0.00,0.0,WeatherDisplay:10.37,2013-03-08 01:18:00,
2013-03-08 01:24:00,40.5,36.6,29.61,WSW,253,8.1,8.1,86,0.00,OVC,,0.00,0.0,WeatherDisplay:10.37,2013-03-08 01:24:00,
2013-03-08 01:29:00,40.5,36.6,29.61,East,97,5.0,5.0,86,0.00,OVC,,0.00,0.0,WeatherDisplay:10.37,2013-03-08 01:29:00,
2013-03-08 01:34:00,40.4,36.5,29.61,WSW,252,4.6,4.6,86,0.00,OVC,,0.00,0.0,WeatherDisplay:10.37,2013-03-08 01:34:00,
2013-03-08 01:39:00,40.4,36.5,29.61,West,269,3.5,3.5,86,0.00,OVC,,0.00,0.0,WeatherDisplay:10.37,2013-03-08 01:39:00,
2013-03-08 01:44:00,40.4,36.5,29.61,WNW,291,3.5,3.5,86,0.00,OVC,,0.00,0.0,WeatherDisplay:10.37,2013-03-08 01:44:00,
2013-03-08 01:49:00,40.4,36.5,29.61,SSE,166,8.1,8.1,86,0.00,OVC,,0.00,0.0,WeatherDisplay:10.37,2013-03-08 01:49:00,
2013-03-08 01:54:00,40.4,36.5,29.61,NNE,30,5.8,5.8,86,0.00,OVC,,0.00,0.0,WeatherDisplay:10.37,2013-03-08 01:54:00,
2013-03-08 01:59:00,40.4,36.5,29.61,ESE,105,6.9,6.9,86,0.00,OVC,,0.00,0.0,WeatherDisplay:10.37,2013-03-08 01:59:00,
2013-03-08 02:04:00,40.4,36.5,29.61,NW,307,2.0,2.0,86,0.00,OVC,,0.00,0.0,WeatherDisplay:10.37,2013-03-08 02:04:00,
2013-03-08 02:09:00,40.4,36.5,29.61,WNW,303,6.9,6.9,86,0.00,OVC,,0.00,0.0,WeatherDisplay:10.37,2013-03-08 02:09:00,
2013-03-08 02:14:00,40.3,36.4,29.61,SE,143,6.9,6.9,86,0.00,OVC,,0.00,0.0,WeatherDisplay:10.37,2013-03-08 02:14:00,
2013-03-08 02:19:00,40.3,36.4,29.61,NE,40,3.5,3.5,86,0.00,OVC,,0.00,0.0,WeatherDisplay:10.37,2013-03-08 02:19:00,
2013-03-08 02:24:00,40.3,36.4,29.61,WSW,241,2.3,2.3,86,0.00,OVC,,0.00,0.0,WeatherDisplay:10.37,2013-03-08 02:24:00,
2013-03-08 02:29:00,40.2,36.3,29.61,WNW,287,3.5,3.5,86,0.00,OVC,,0.00,0.0,WeatherDisplay:10.37,2013-03-08 02:29:00,
2013-03-08 02:34:00,40.1,36.5,29.61,SSW,198,3.5,3.5,87,0.00,OVC,,0.00,0.0,WeatherDisplay:10.37,2013-03-08 02:34:00,
2013-03-08 02:39:00,40.1,36.5,29.61,SW,236,9.2,9.2,87,0.00,OVC,,0.00,0.0,WeatherDisplay:10.37,2013-03-08 02:39:00,
2013-03-08 02:44:00,40.0,36.4,29.60,WSW,238,6.9,6.9,87,0.00,OVC,,0.00,0.0,WeatherDisplay:10.37,2013-03-08 02:44:00,
2013-03-08 02:49:00,40.0,36.4,29.61,East,86,5.8,5.8,87,0.00,OVC,,0.00,0.0,WeatherDisplay:10.37,2013-03-08 02:49:00,
2013-03-08 02:54:00,39.9,36.6,29.61,East,81,3.5,3.5,88,0.00,OVC,,0.00,0.0,WeatherDisplay:10.37,2013-03-08 02:54:00,
2013-03-08 02:59:00,39.8,36.5,29.61,SE,140,3.5,3.5,88,0.00,OVC,,0.00,0.0,WeatherDisplay:10.37,2013-03-08 02:59:00,
2013-03-08 03:04:00,39.8,36.5,29.60,SE,135,2.3,2.3,88,0.00,OVC,,0.00,0.0,WeatherDisplay:10.37,2013-03-08 03:04:00,
2013-03-08 03:09:00,39.7,36.4,29.60,NW,310,3.5,3.5,88,0.00,OVC,,0.00,0.0,WeatherDisplay:10.37,2013-03-08 03:09:00,
2013-03-08 03:14:00,39.7,36.4,29.60,SW,232,3.5,3.5,88,0.00,OVC,,0.00,0.0,WeatherDisplay:10.37,2013-03-08 03:14:00,
2013-03-08 03:20:00,39.7,36.4,29.60,SW,232,8.1,8.1,88,0.00,OVC,,0.00,0.0,WeatherDisplay:10.37,2013-03-08 03:20:00,
2013-03-08 03:25:00,39.7,36.4,29.60,WNW,302,2.3,2.3,88,0.00,OVC,,0.00,0.0,WeatherDisplay:10.37,2013-03-08 03:25:00,
2013-03-08 03:30:00,39.7,36.4,29.60,NW,324,3.5,3.5,88,0.00,OVC,,0.00,0.0,WeatherDisplay:10.37,2013-03-08 03:30:00,
2013-03-08 03:35:00,39.7,36.7,29.60,SW,235,4.0,4.0,89,0.00,OVC,,0.00,0.0,WeatherDisplay:10.37,2013-03-08 03:35:00,
2013-03-08 03:40:00,39.6,36.6,29.60,West,259,2.3,2.3,89,0.00,OVC,,0.00,0.0,WeatherDisplay:10.37,2013-03-08 03:40:00,
2013-03-08 03:45:00,39.6,36.6,29.60,SSW,192,3.5,3.5,89,0.00,OVC,,0.00,0.0,WeatherDisplay:10.37,2013-03-08 03:45:00,
2013-03-08 03:50:00,39.5,36.5,29.60,WSW,256,4.6,4.6,89,0.00,OVC,,0.00,0.0,WeatherDisplay:10.37,2013-03-08 03:50:00,
2013-03-08 03:55:00,39.5,36.5,29.60,SSE,148,3.5,3.5,89,0.00,OVC,,0.00,0.0,WeatherDisplay:10.37,2013-03-08 03:55:00,
2013-03-08 04:00:00,39.5,36.5,29.60,NNE,25,3.5,3.5,89,0.00,OVC,,0.00,0.0,WeatherDisplay:10.37,2013-03-08 04:00:00,
2013-03-08 04:05:00,39.5,36.5,29.60,WSW,240,4.6,4.6,89,0.00,OVC,,0.00,0.0,WeatherDisplay:10.37,2013-03-08 04:05:00,
2013-03-08 04:10:00,39.6,36.6,29.60,NNE,26,5.8,5.8,89,0.00,OVC,,0.00,0.0,WeatherDisplay:10.37,2013-03-08 04:10:00,
2013-03-08 04:15:00,39.6,36.6,29.60,NNW,330,3.5,3.5,89,0.00,OVC,,0.00,0.0,WeatherDisplay:10.37,2013-03-08 04:15:00,
2013-03-08 04:21:00,39.6,36.6,29.60,South,181,3.5,3.5,89,0.00,OVC,,0.00,0.0,WeatherDisplay:10.37,2013-03-08 04:21:00,
2013-03-08 04:26:00,39.6,36.6,29.60,SW,229,3.5,3.5,89,0.00,OVC,,0.00,0.0,WeatherDisplay:10.37,2013-03-08 04:26:00,
2013-03-08 04:31:00,39.6,36.6,29.60,SW,236,4.6,4.6,89,0.00,OVC,,0.00,0.0,WeatherDisplay:10.37,2013-03-08 04:31:00,
2013-03-08 04:36:00,39.6,36.6,29.60,West,266,3.5,3.5,89,0.00,OVC,,0.00,0.0,WeatherDisplay:10.37,2013-03-08 04:36:00,
2013-03-08 04:41:00,39.6,36.6,29.60,WSW,245,3.5,3.5,89,0.00,OVC,,0.00,0.0,WeatherDisplay:10.37,2013-03-08 04:41:00,
2013-03-08 04:46:00,39.6,36.9,29.60,SW,217,3.5,3.5,90,0.00,OVC,,0.00,0.0,WeatherDisplay:10.37,2013-03-08 04:46:00,
2013-03-08 04:51:00,39.6,36.9,29.60,WNW,298,3.5,3.5,90,0.00,OVC,,0.00,0.0,WeatherDisplay:10.37,2013-03-08 04:51:00,
2013-03-08 04:56:00,39.5,36.8,29.60,WNW,294,3.5,3.5,90,0.00,OVC,,0.00,0.0,WeatherDisplay:10.37,2013-03-08 04:56:00,
2013-03-08 05:00:00,39.5,36.8,29.60,West,261,1.0,4.0,90,0.00,OVC,OVC,0.00,0.0,WeatherDisplay:10.37,2013-03-08 05:00:00,
2013-03-08 05:04:00,39.6,36.9,29.61,West,267,3.5,3.5,90,0.00,OVC,,0.00,0.0,WeatherDisplay:10.37,2013-03-08 05:04:00,
2013-03-08 05:09:00,39.6,36.9,29.61,WNW,290,4.0,4.0,90,0.00,OVC,,0.00,0.0,WeatherDisplay:10.37,2013-03-08 05:09:00,
2013-03-08 05:13:00,39.6,36.9,29.61,North,350,2.3,2.3,90,0.00,OVC,,0.00,0.0,WeatherDisplay:10.37,2013-03-08 05:13:00,
2013-03-08 05:19:00,39.5,36.8,29.61,NW,314,3.0,3.0,90,0.00,OVC,,0.00,0.0,WeatherDisplay:10.37,2013-03-08 05:19:00,
2013-03-08 05:24:00,39.5,36.8,29.60,SE,124,5.0,5.0,90,0.00,OVC,,0.00,0.0,WeatherDisplay:10.37,2013-03-08 05:24:00,
2013-03-08 05:29:00,39.5,36.8,29.60,West,277,3.5,3.5,90,0.00,OVC,,0.00,0.0,WeatherDisplay:10.37,2013-03-08 05:29:00,
2013-03-08 05:34:00,39.5,36.8,29.61,SE,140,3.5,3.5,90,0.00,OVC,,0.00,0.0,WeatherDisplay:10.37,2013-03-08 05:34:00,
2013-03-08 05:39:00,39.4,37.0,29.61,NE,43,3.0,3.0,91,0.00,OVC,,0.00,0.0,WeatherDisplay:10.37,2013-03-08 05:39:00,
2013-03-08 05:44:00,39.4,37.0,29.60,WSW,244,3.0,3.0,91,0.00,OVC,,0.00,0.0,WeatherDisplay:10.37,2013-03-08 05:44:00,
2013-03-08 05:49:00,39.3,36.9,29.61,SSE,150,5.8,5.8,91,0.00,-RA,OVC,0.00,0.0,WeatherDisplay:10.37,2013-03-08 05:49:00,
2013-03-08 05:54:00,39.3,36.9,29.61,SW,225,3.5,3.5,91,0.00,-RA,OVC,0.00,0.0,WeatherDisplay:10.37,2013-03-08 05:54:00,
2013-03-08 05:59:00,39.3,36.9,29.61,NNW,329,2.3,2.3,91,0.00,-RA,OVC,0.00,0.0,WeatherDisplay:10.37,2013-03-08 05:59:00,
2013-03-08 06:04:00,39.3,36.9,29.61,WNW,283,3.5,3.5,91,0.00,-RA,OVC,0.00,0.0,WeatherDisplay:10.37,2013-03-08 06:04:00,
2013-03-08 06:09:00,39.3,36.9,29.61,SSE,150,6.9,6.9,91,0.01,-RA,OVC,0.01,0.0,WeatherDisplay:10.37,2013-03-08 06:09:00,
2013-03-08 06:14:00,39.3,36.9,29.60,SW,233,3.5,3.5,91,0.01,-RA,OVC,0.01,0.0,WeatherDisplay:10.37,2013-03-08 06:14:00,
2013-03-08 06:19:00,39.2,36.8,29.61,WNW,284,3.5,3.5,91,0.01,-RA,OVC,0.01,0.0,WeatherDisplay:10.37,2013-03-08 06:19:00,
2013-03-08 06:24:00,39.2,36.8,29.61,SSE,167,4.6,4.6,91,0.01,-RA,OVC,0.01,0.0,WeatherDisplay:10.37,2013-03-08 06:24:00,
2013-03-08 06:29:00,39.1,36.7,29.60,NW,309,6.9,6.9,91,0.01,-RA,OVC,0.01,0.0,WeatherDisplay:10.37,2013-03-08 06:29:00,
2013-03-08 06:34:00,39.1,36.7,29.61,WNW,302,3.5,3.5,91,0.01,-RA,OVC,0.01,0.0,WeatherDisplay:10.37,2013-03-08 06:34:00,
2013-03-08 06:39:00,39.0,36.6,29.61,SSE,160,4.6,4.6,91,0.01,-RA,OVC,0.01,0.0,WeatherDisplay:10.37,2013-03-08 06:39:00,
2013-03-08 06:44:00,38.9,36.5,29.60,SW,219,4.6,4.6,91,0.01,-RA,OVC,0.01,0.0,WeatherDisplay:10.37,2013-03-08 06:44:00,
2013-03-08 06:49:00,38.8,36.4,29.60,NE,49,4.6,4.6,91,0.01,-RA,OVC,0.01,0.0,WeatherDisplay:10.37,2013-03-08 06:49:00,
2013-03-08 06:54:00,38.7,36.3,29.60,West,263,3.5,3.5,91,0.01,-RA,OVC,0.01,0.0,WeatherDisplay:10.37,2013-03-08 06:54:00,
2013-03-08 06:59:00,38.7,36.3,29.60,WSW,243,3.5,3.5,91,0.01,-RA,OVC,0.01,0.0,WeatherDisplay:10.37,2013-03-08 06:59:00,
2013-03-08 07:04:00,38.7,36.3,29.60,North,358,2.3,2.3,91,0.01,-RA,OVC,0.01,0.0,WeatherDisplay:10.37,2013-03-08 07:04:00,
2013-03-08 07:09:00,38.7,36.3,29.61,NNW,328,4.6,4.6,91,0.00,-RA,OVC,0.01,0.0,WeatherDisplay:10.37,2013-03-08 07:09:00,
2013-03-08 07:14:00,38.7,36.6,29.60,WNW,301,4.6,4.6,92,0.00,-RA,OVC,0.01,0.0,WeatherDisplay:10.37,2013-03-08 07:14:00,
2013-03-08 07:19:00,38.8,36.7,29.60,NW,311,3.5,3.5,92,0.00,-RA,OVC,0.01,0.0,WeatherDisplay:10.37,2013-03-08 07:19:00,
2013-03-08 07:24:00,38.8,36.7,29.61,WNW,283,4.0,4.0,92,0.00,-RA,OVC,0.01,0.0,WeatherDisplay:10.37,2013-03-08 07:24:00,
2013-03-08 07:29:00,38.8,36.7,29.61,NNE,27,6.9,6.9,92,0.00,-RA,OVC,0.01,0.0,WeatherDisplay:10.37,2013-03-08 07:29:00,
2013-03-08 07:34:00,38.9,36.8,29.61,NNE,22,5.8,5.8,92,0.00,-RA,OVC,0.01,0.0,WeatherDisplay:10.37,2013-03-08 07:34:00,
2013-03-08 07:39:00,38.9,36.8,29.62,NW,307,6.9,6.9,92,0.01,-RA,OVC,0.02,0.0,WeatherDisplay:10.37,2013-03-08 07:39:00,
2013-03-08 07:44:00,38.9,36.8,29.62,North,358,3.5,3.5,92,0.01,-RA,OVC,0.02,0.0,WeatherDisplay:10.37,2013-03-08 07:44:00,
2013-03-08 07:49:00,39.0,36.9,29.62,SE,144,5.0,5.0,92,0.01,-RA,OVC,0.02,0.0,WeatherDisplay:10.37,2013-03-08 07:49:00,
2013-03-08 07:54:00,39.0,36.9,29.62,SE,125,5.8,5.8,92,0.01,-RA,OVC,0.02,0.0,WeatherDisplay:10.37,2013-03-08 07:54:00,
2013-03-08 07:59:00,39.1,37.0,29.62,NNE,15,3.5,3.5,92,0.01,-RA,OVC,0.02,0.0,WeatherDisplay:10.37,2013-03-08 07:59:00,
2013-03-08 08:04:00,39.1,37.0,29.62,SSE,167,3.5,3.5,92,0.01,-RA,OVC,0.02,0.0,WeatherDisplay:10.37,2013-03-08 08:04:00,
2013-03-08 08:09:00,39.1,37.0,29.63,West,278,2.3,2.3,92,0.01,-RA,OVC,0.02,0.0,WeatherDisplay:10.37,2013-03-08 08:09:00,
2013-03-08 08:14:00,39.2,36.8,29.62,WSW,239,6.9,6.9,91,0.01,-RA,OVC,0.02,0.0,WeatherDisplay:10.37,2013-03-08 08:14:00,
2013-03-08 08:19:00,39.2,36.8,29.62,SW,224,3.5,3.5,91,0.01,-RA,OVC,0.02,0.0,WeatherDisplay:10.37,2013-03-08 08:19:00,
2013-03-08 08:24:00,39.2,36.8,29.62,SW,224,4.6,4.6,91,0.01,-RA,OVC,0.02,0.0,WeatherDisplay:10.37,2013-03-08 08:24:00,
2013-03-08 08:29:00,39.3,37.2,29.63,ESE,114,2.3,2.3,92,0.01,-RA,OVC,0.02,0.0,WeatherDisplay:10.37,2013-03-08 08:29:00,
2013-03-08 08:34:00,39.3,36.9,29.63,NE,38,3.5,3.5,91,0.01,-RA,OVC,0.02,0.0,WeatherDisplay:10.37,2013-03-08 08:34:00,
2013-03-08 08:39:00,39.3,36.9,29.63,WNW,301,3.5,3.5,91,0.00,-RA,OVC,0.02,0.0,WeatherDisplay:10.37,2013-03-08 08:39:00,
2013-03-08 08:44:00,39.3,36.9,29.63,SW,236,4.6,4.6,91,0.00,-RA,OVC,0.02,0.0,WeatherDisplay:10.37,2013-03-08 08:44:00,
2013-03-08 08:49:00,39.3,37.2,29.63,NNW,346,5.8,5.8,92,0.00,-RA,OVC,0.02,0.0,WeatherDisplay:10.37,2013-03-08 08:49:00,
2013-03-08 08:54:00,39.3,37.2,29.63,NE,43,5.8,5.8,92,0.00,-RA,OVC,0.02,0.0,WeatherDisplay:10.37,2013-03-08 08:54:00,
2013-03-08 08:59:00,39.4,37.3,29.63,NNW,327,3.5,3.5,92,0.00,-RA,OVC,0.02,0.0,WeatherDisplay:10.37,2013-03-08 08:59:00,
2013-03-08 09:04:00,39.5,37.4,29.63,North,351,4.6,4.6,92,0.00,-RA,OVC,0.02,0.0,WeatherDisplay:10.37,2013-03-08 09:04:00,
2013-03-08 09:09:00,39.5,37.4,29.63,WSW,252,3.5,3.5,92,0.00,-RA,OVC,0.02,0.0,WeatherDisplay:10.37,2013-03-08 09:09:00,
2013-03-08 09:14:00,39.6,37.5,29.63,WNW,303,3.5,3.5,92,0.00,-RA,OVC,0.02,0.0,WeatherDisplay:10.37,2013-03-08 09:14:00,
2013-03-08 09:19:00,39.6,37.5,29.64,ENE,75,3.5,3.5,92,0.00,-RA,OVC,0.02,0.0,WeatherDisplay:10.37,2013-03-08 09:19:00,
2013-03-08 09:24:00,39.6,37.5,29.64,SSE,164,3.5,3.5,92,0.01,-RA,OVC,0.02,0.0,WeatherDisplay:10.37,2013-03-08 09:24:00,
2013-03-08 09:29:00,39.7,37.6,29.64,WSW,250,6.9,6.9,92,0.01,-RA,OVC,0.02,0.0,WeatherDisplay:10.37,2013-03-08 09:29:00,
2013-03-08 09:34:00,39.7,37.6,29.64,SSW,208,3.5,3.5,92,0.01,-RA,OVC,0.02,0.0,WeatherDisplay:10.37,2013-03-08 09:34:00,
2013-03-08 09:39:00,39.8,37.7,29.64,NNW,333,3.5,3.5,92,0.01,-RA,OVC,0.02,0.0,WeatherDisplay:10.37,2013-03-08 09:39:00,
2013-03-08 09:44:00,39.8,37.7,29.64,SW,221,5.8,5.8,92,0.01,-RA,OVC,0.02,0.0,WeatherDisplay:10.37,2013-03-08 09:44:00,
2013-03-08 09:49:00,39.9,37.8,29.64,NNW,346,5.8,5.8,92,0.01,-RA,OVC,0.02,0.0,WeatherDisplay:10.37,2013-03-08 09:49:00,
2013-03-08 09:54:00,39.8,37.7,29.64,NW,321,9.2,9.2,92,0.01,-RA,OVC,0.02,0.0,WeatherDisplay:10.37,2013-03-08 09:54:00,
2013-03-08 09:59:00,39.8,37.7,29.64,East,97,4.6,4.6,92,0.01,-RA,OVC,0.02,0.0,WeatherDisplay:10.37,2013-03-08 09:59:00,
2013-03-08 10:04:00,39.8,37.7,29.64,NW,314,4.6,4.6,92,0.01,-RA,OVC,0.02,0.0,WeatherDisplay:10.37,2013-03-08 10:04:00,
2013-03-08 10:09:00,39.8,37.7,29.64,SE,137,3.5,3.5,92,0.01,-RA,OVC,0.02,0.0,WeatherDisplay:10.37,2013-03-08 10:09:00,
2013-03-08 10:14:00,39.8,37.7,29.64,South,172,3.5,3.5,92,0.01,-RA,OVC,0.02,0.0,WeatherDisplay:10.37,2013-03-08 10:14:00,
2013-03-08 10:19:00,39.8,37.7,29.65,SW,236,6.0,6.0,92,0.01,-RA,OVC,0.02,0.0,WeatherDisplay:10.37,2013-03-08 10:19:00,
2013-03-08 10:24:00,39.8,37.7,29.65,South,186,3.5,3.5,92,0.00,-RA,OVC,0.02,0.0,WeatherDisplay:10.37,2013-03-08 10:24:00,
2013-03-08 10:29:00,39.8,37.7,29.65,ENE,67,2.3,2.3,92,0.00,-RA,OVC,0.02,0.0,WeatherDisplay:10.37,2013-03-08 10:29:00,
2013-03-08 10:34:00,39.8,37.7,29.65,SE,125,5.8,5.8,92,0.01,-RA,OVC,0.03,0.0,WeatherDisplay:10.37,2013-03-08 10:34:00,
2013-03-08 10:39:00,39.9,37.8,29.65,SE,131,5.8,5.8,92,0.01,-RA,OVC,0.03,0.0,WeatherDisplay:10.37,2013-03-08 10:39:00,
2013-03-08 10:44:00,39.9,37.8,29.65,ESE,118,3.5,3.5,92,0.01,-RA,OVC,0.03,0.0,WeatherDisplay:10.37,2013-03-08 10:44:00,
2013-03-08 10:49:00,39.9,37.8,29.65,West,281,4.6,4.6,92,0.01,-RA,OVC,0.03,0.0,WeatherDisplay:10.37,2013-03-08 10:49:00,
2013-03-08 10:54:00,39.9,37.8,29.65,WNW,291,5.8,5.8,92,0.01,-RA,OVC,0.03,0.0,WeatherDisplay:10.37,2013-03-08 10:54:00,
2013-03-08 10:59:00,39.9,37.8,29.66,NNW,346,4.6,4.6,92,0.01,-RA,OVC,0.03,0.0,WeatherDisplay:10.37,2013-03-08 10:59:00,
2013-03-08 11:04:00,39.9,37.8,29.66,SSE,152,4.0,4.0,92,0.01,-RA,OVC,0.03,0.0,WeatherDisplay:10.37,2013-03-08 11:04:00,
2013-03-08 11:09:00,39.9,37.8,29.66,South,190,3.5,3.5,92,0.01,-RA,OVC,0.03,0.0,WeatherDisplay:10.37,2013-03-08 11:09:00,
2013-03-08 11:15:00,39.9,37.8,29.66,North,4,2.3,2.3,92,0.01,-RA,OVC,0.03,0.0,WeatherDisplay:10.37,2013-03-08 11:15:00,
2013-03-08 11:20:00,40.0,37.9,29.66,ESE,109,2.3,2.3,92,0.01,-RA,OVC,0.03,0.0,WeatherDisplay:10.37,2013-03-08 11:20:00,
2013-03-08 11:25:00,40.0,37.9,29.66,South,188,5.8,5.8,92,0.01,-RA,OVC,0.03,0.0,WeatherDisplay:10.37,2013-03-08 11:25:00,
2013-03-08 11:30:00,40.0,37.9,29.67,NW,323,3.5,3.5,92,0.01,-RA,OVC,0.03,0.0,WeatherDisplay:10.37,2013-03-08 11:30:00,
2013-03-08 11:35:00,39.9,37.8,29.67,WSW,250,3.5,3.5,92,0.00,-RA,OVC,0.04,0.0,WeatherDisplay:10.37,2013-03-08 11:35:00,
2013-03-08 11:45:00,39.9,38.0,29.67,WSW,256,3.5,3.5,93,0.00,OVC,,0.00,0.0,WeatherDisplay:10.37,2013-03-08 11:45:00,
2013-03-08 11:50:00,39.9,38.0,29.67,North,8,4.6,4.6,93,0.00,-RA,OVC,0.00,0.0,WeatherDisplay:10.37,2013-03-08 11:50:00,
2013-03-08 11:55:00,39.8,37.9,29.67,WSW,248,2.3,2.3,93,0.00,-RA,OVC,0.00,0.0,WeatherDisplay:10.37,2013-03-08 11:55:00,
2013-03-08 12:00:00,39.9,37.8,29.67,ENE,57,3.5,3.5,92,0.00,-RA,OVC,0.00,0.0,WeatherDisplay:10.37,2013-03-08 12:00:00,
2013-03-08 12:05:00,39.9,37.8,29.67,NW,304,3.5,3.5,92,0.00,-RA,OVC,0.00,0.0,WeatherDisplay:10.37,2013-03-08 12:05:00,
2013-03-08 12:10:00,39.9,37.8,29.67,SSW,195,3.5,3.5,92,0.00,-RA,OVC,0.00,0.0,WeatherDisplay:10.37,2013-03-08 12:10:00,
2013-03-08 12:15:00,39.9,37.8,29.67,SE,139,4.6,4.6,92,0.00,-RA,OVC,0.00,0.0,WeatherDisplay:10.37,2013-03-08 12:15:00,
2013-03-08 12:20:00,39.9,37.8,29.67,NW,309,7.0,7.0,92,0.00,-RA,OVC,0.00,0.0,WeatherDisplay:10.37,2013-03-08 12:20:00,
2013-03-08 12:25:00,39.9,37.8,29.67,WNW,295,4.0,4.0,92,0.00,-RA,OVC,0.00,0.0,WeatherDisplay:10.37,2013-03-08 12:25:00,
2013-03-08 12:30:00,39.9,37.8,29.67,WNW,294,3.5,3.5,92,0.00,-RA,OVC,0.00,0.0,WeatherDisplay:10.37,2013-03-08 12:30:00,
2013-03-08 12:35:00,39.9,37.5,29.67,SW,222,3.5,3.5,91,0.00,-RA,OVC,0.00,0.0,WeatherDisplay:10.37,2013-03-08 12:35:00,
2013-03-08 12:41:00,39.9,37.5,29.67,ESE,120,3.5,3.5,91,0.00,-RA,OVC,0.00,0.0,WeatherDisplay:10.37,2013-03-08 12:41:00,
2013-03-08 12:46:00,40.0,37.6,29.67,SSW,211,4.6,4.6,91,0.00,-RA,OVC,0.00,0.0,WeatherDisplay:10.37,2013-03-08 12:46:00,
2013-03-08 12:51:00,40.1,37.7,29.67,East,101,6.9,6.9,91,0.00,-RA,OVC,0.00,0.0,WeatherDisplay:10.37,2013-03-08 12:51:00,
2013-03-08 12:56:00,40.2,37.8,29.67,NNE,20,3.5,3.5,91,0.00,-RA,OVC,0.00,0.0,WeatherDisplay:10.37,2013-03-08 12:56:00,
2013-03-08 13:01:00,40.3,37.9,29.67,ESE,104,2.3,2.3,91,0.00,-RA,OVC,0.00,0.0,WeatherDisplay:10.37,2013-03-08 13:01:00,
2013-03-08 13:06:00,40.2,37.8,29.67,WNW,284,4.0,4.0,91,0.00,-RA,OVC,0.00,0.0,WeatherDisplay:10.37,2013-03-08 13:06:00,
2013-03-08 13:11:00,40.3,37.9,29.67,WSW,252,3.5,3.5,91,0.00,-RA,OVC,0.00,0.0,WeatherDisplay:10.37,2013-03-08 13:11:00,
2013-03-08 13:16:00,40.3,37.9,29.67,SE,139,3.5,3.5,91,0.00,-RA,OVC,0.00,0.0,WeatherDisplay:10.37,2013-03-08 13:16:00,
2013-03-08 13:21:00,40.3,37.9,29.67,SE,125,3.5,3.5,91,0.00,-RA,OVC,0.00,0.0,WeatherDisplay:10.37,2013-03-08 13:21:00,
2013-03-08 13:26:00,40.3,37.9,29.67,WNW,300,3.5,3.5,91,0.00,-RA,OVC,0.00,0.0,WeatherDisplay:10.37,2013-03-08 13:26:00,
2013-03-08 13:31:00,40.3,37.9,29.67,SE,136,6.9,6.9,91,0.00,-RA,OVC,0.00,0.0,WeatherDisplay:10.37,2013-03-08 13:31:00,
2013-03-08 13:36:00,40.4,38.0,29.67,ESE,121,3.5,3.5,91,0.00,-RA,OVC,0.00,0.0,WeatherDisplay:10.37,2013-03-08 13:36:00,
2013-03-08 13:41:00,40.4,38.0,29.67,SSW,198,3.5,3.5,91,0.00,-RA,OVC,0.00,0.0,WeatherDisplay:10.37,2013-03-08 13:41:00,
2013-03-08 13:46:00,40.4,38.0,29.67,East,85,3.5,3.5,91,0.00,-RA,OVC,0.00,0.0,WeatherDisplay:10.37,2013-03-08 13:46:00,
2013-03-08 13:51:00,40.6,38.2,29.66,SSE,154,5.8,5.8,91,0.00,-RA,OVC,0.00,0.0,WeatherDisplay:10.37,2013-03-08 13:51:00,
2013-03-08 13:56:00,40.8,38.1,29.66,WSW,240,9.2,9.2,90,0.00,-RA,OVC,0.00,0.0,WeatherDisplay:10.37,2013-03-08 13:56:00,
2013-03-08 14:01:00,40.7,38.0,29.66,South,181,8.1,8.1,90,0.00,-RA,OVC,0.00,0.0,WeatherDisplay:10.37,2013-03-08 14:01:00,
2013-03-08 14:06:00,40.6,37.9,29.66,WNW,288,6.0,6.0,90,0.00,-RA,OVC,0.00,0.0,WeatherDisplay:10.37,2013-03-08 14:06:00,
2013-03-08 14:11:00,40.4,38.0,29.66,South,183,3.5,3.5,91,0.00,-RA,OVC,0.00,0.0,WeatherDisplay:10.37,2013-03-08 14:11:00,
2013-03-08 14:16:00,40.4,38.0,29.66,WNW,290,3.5,3.5,91,0.00,-RA,OVC,0.00,0.0,WeatherDisplay:10.37,2013-03-08 14:16:00,
2013-03-08 14:21:00,40.4,38.0,29.67,ESE,123,5.8,5.8,91,0.00,-RA,OVC,0.00,0.0,WeatherDisplay:10.37,2013-03-08 14:21:00,
2013-03-08 14:26:00,40.4,37.7,29.67,NNW,342,4.6,4.6,90,0.00,-RA,OVC,0.00,0.0,WeatherDisplay:10.37,2013-03-08 14:26:00,
2013-03-08 14:31:00,40.4,38.0,29.67,West,274,4.6,4.6,91,0.00,-RA,OVC,0.00,0.0,WeatherDisplay:10.37,2013-03-08 14:31:00,
2013-03-08 14:36:00,40.4,37.7,29.67,WSW,255,4.6,4.6,90,0.00,-RA,OVC,0.00,0.0,WeatherDisplay:10.37,2013-03-08 14:36:00,
2013-03-08 14:41:00,40.3,37.9,29.67,WSW,256,8.1,8.1,91,0.00,-RA,OVC,0.00,0.0,WeatherDisplay:10.37,2013-03-08 14:41:00,
2013-03-08 14:46:00,40.3,37.6,29.67,NNW,339,2.3,2.3,90,0.00,-RA,OVC,0.00,0.0,WeatherDisplay:10.37,2013-03-08 14:46:00,
2013-03-08 14:51:00,40.3,37.6,29.67,NW,312,3.5,3.5,90,0.00,-RA,OVC,0.00,0.0,WeatherDisplay:10.37,2013-03-08 14:51:00,
2013-03-08 14:56:00,40.3,37.6,29.68,NW,307,3.5,3.5,90,0.00,-RA,OVC,0.00,0.0,WeatherDisplay:10.37,2013-03-08 14:56:00,
2013-03-08 15:01:00,40.1,37.7,29.67,SSE,163,2.3,2.3,91,0.00,OVC,,0.00,0.0,WeatherDisplay:10.37,2013-03-08 15:01:00,
2013-03-08 15:06:00,40.0,37.6,29.67,SSE,154,2.3,2.5,91,0.00,OVC,,0.00,0.0,WeatherDisplay:10.37,2013-03-08 15:06:00,
2013-03-08 15:11:00,40.0,37.6,29.68,SSW,208,1.2,1.2,91,0.00,OVC,,0.00,0.0,WeatherDisplay:10.37,2013-03-08 15:11:00,
2013-03-08 15:17:00,39.9,37.5,29.68,NW,319,3.5,3.5,91,0.00,OVC,,0.00,0.0,WeatherDisplay:10.37,2013-03-08 15:17:00,
2013-03-08 15:22:00,39.9,37.5,29.68,NNW,335,4.6,4.6,91,0.00,OVC,,0.00,0.0,WeatherDisplay:10.37,2013-03-08 15:22:00,
2013-03-08 15:27:00,39.8,37.4,29.68,South,188,3.5,3.5,91,0.00,OVC,,0.00,0.0,WeatherDisplay:10.37,2013-03-08 15:27:00,
2013-03-08 15:32:00,39.7,37.3,29.68,East,86,4.6,4.6,91,0.00,BKN,OVC,0.00,0.0,WeatherDisplay:10.37,2013-03-08 15:32:00,
2013-03-08 15:37:00,39.6,37.5,29.68,NE,53,3.5,3.5,92,0.13,RA,OVC,0.13,0.0,WeatherDisplay:10.37,2013-03-08 15:37:00,
2013-03-08 15:42:00,39.6,37.5,29.68,WNW,295,4.0,4.0,92,0.13,RA,OVC,0.13,0.0,WeatherDisplay:10.37,2013-03-08 15:42:00,
2013-03-08 15:47:00,39.5,37.4,29.68,East,101,3.5,3.5,92,0.13,BKN,OVC,0.13,0.0,WeatherDisplay:10.37,2013-03-08 15:47:00,
2013-03-08 15:52:00,39.4,37.3,29.68,SW,236,2.3,2.3,92,0.13,BKN,OVC,0.13,0.0,WeatherDisplay:10.37,2013-03-08 15:52:00,
2013-03-08 15:57:00,39.3,37.2,29.68,North,359,4.0,4.0,92,0.13,BKN,OVC,0.13,0.0,WeatherDisplay:10.37,2013-03-08 15:57:00,
2013-03-08 16:02:00,39.3,37.2,29.68,WSW,244,3.5,3.5,92,0.13,BKN,OVC,0.13,0.0,WeatherDisplay:10.37,2013-03-08 16:02:00,
2013-03-08 16:07:00,39.3,37.4,29.68,WNW,302,1.2,1.2,93,0.13,BKN,OVC,0.13,0.0,WeatherDisplay:10.37,2013-03-08 16:07:00,
2013-03-08 16:12:00,39.3,37.4,29.69,NNW,334,3.5,3.5,93,0.13,BKN,OVC,0.13,0.0,WeatherDisplay:10.37,2013-03-08 16:12:00,
2013-03-08 16:17:00,39.2,37.3,29.68,ESE,119,3.5,3.5,93,0.13,BKN,OVC,0.13,0.0,WeatherDisplay:10.37,2013-03-08 16:17:00,
2013-03-08 16:22:00,39.2,37.3,29.68,NNW,330,8.1,8.1,93,0.13,BKN,OVC,0.13,0.0,WeatherDisplay:10.37,2013-03-08 16:22:00,
2013-03-08 16:27:00,39.1,37.2,29.68,North,352,3.5,3.5,93,0.13,BKN,OVC,0.13,0.0,WeatherDisplay:10.37,2013-03-08 16:27:00,
2013-03-08 16:32:00,39.1,37.2,29.69,NW,310,3.5,3.5,93,0.13,BKN,OVC,0.13,0.0,WeatherDisplay:10.37,2013-03-08 16:32:00,
2013-03-08 16:37:00,39.1,37.2,29.69,ESE,121,3.5,3.5,93,0.00,BKN,OVC,0.13,0.0,WeatherDisplay:10.37,2013-03-08 16:37:00,
2013-03-08 16:42:00,39.1,37.2,29.69,NNW,330,1.2,1.2,93,0.00,BKN,OVC,0.13,0.0,WeatherDisplay:10.37,2013-03-08 16:42:00,
2013-03-08 16:47:00,39.0,37.1,29.69,ESE,110,2.3,2.3,93,0.00,-RA,OVC,0.13,0.0,WeatherDisplay:10.37,2013-03-08 16:47:00,
2013-03-08 16:52:00,39.0,37.1,29.68,NE,40,2.3,2.3,93,0.00,-RA,OVC,0.13,0.0,WeatherDisplay:10.37,2013-03-08 16:52:00,
2013-03-08 16:57:00,39.0,37.1,29.69,WSW,249,3.0,3.0,93,0.00,-RA,OVC,0.13,0.0,WeatherDisplay:10.37,2013-03-08 16:57:00,
2013-03-08 17:02:00,39.0,37.1,29.69,NNW,328,4.6,4.6,93,0.01,-RA,OVC,0.14,0.0,WeatherDisplay:10.37,2013-03-08 17:02:00,
2013-03-08 17:07:00,39.0,37.1,29.69,North,1,3.5,3.5,93,0.01,-RA,OVC,0.14,0.0,WeatherDisplay:10.37,2013-03-08 17:07:00,
2013-03-08 17:12:00,39.0,37.1,29.69,ESE,117,6.9,6.9,93,0.01,-RA,OVC,0.14,0.0,WeatherDisplay:10.37,2013-03-08 17:12:00,
2013-03-08 17:17:00,38.9,37.0,29.69,North,350,4.6,4.6,93,0.01,-RA,OVC,0.14,0.0,WeatherDisplay:10.37,2013-03-08 17:17:00,
2013-03-08 17:22:00,38.9,37.0,29.70,NW,304,5.8,5.8,93,0.01,-RA,OVC,0.14,0.0,WeatherDisplay:10.37,2013-03-08 17:22:00,
2013-03-08 17:27:00,38.9,37.0,29.70,SE,140,2.3,2.3,93,0.01,-RA,OVC,0.14,0.0,WeatherDisplay:10.37,2013-03-08 17:27:00,
2013-03-08 17:32:00,38.8,36.9,29.70,SSE,158,2.0,2.0,93,0.01,BKN,OVC,0.14,0.0,WeatherDisplay:10.37,2013-03-08 17:32:00,
2013-03-08 17:37:00,38.8,36.9,29.70,West,269,3.5,3.5,93,0.01,BKN,OVC,0.14,0.0,WeatherDisplay:10.37,2013-03-08 17:37:00,
2013-03-08 17:42:00,38.8,36.9,29.70,NNW,328,2.0,2.0,93,0.01,BKN,OVC,0.14,0.0,WeatherDisplay:10.37,2013-03-08 17:42:00,
2013-03-08 17:47:00,38.7,36.9,29.70,West,276,3.5,3.5,93,0.01,BKN,OVC,0.14,0.0,WeatherDisplay:10.37,2013-03-08 17:47:00,
2013-03-08 17:52:00,38.7,36.9,29.70,SE,142,4.0,4.0,93,0.01,BKN,OVC,0.14,0.0,WeatherDisplay:10.37,2013-03-08 17:52:00,
2013-03-08 17:57:00,38.7,36.9,29.70,North,355,2.3,2.3,93,0.01,BKN,OVC,0.14,0.0,WeatherDisplay:10.37,2013-03-08 17:57:00,
2013-03-08 18:02:00,38.7,36.9,29.70,WNW,300,5.8,5.8,93,0.00,BKN,OVC,0.14,0.0,WeatherDisplay:10.37,2013-03-08 18:02:00,
2013-03-08 18:07:00,38.7,36.9,29.71,SE,136,1.2,1.2,93,0.00,BKN,OVC,0.14,0.0,WeatherDisplay:10.37,2013-03-08 18:07:00,
2013-03-08 18:12:00,38.7,36.9,29.71,NNE,23,3.5,3.5,93,0.00,BKN,OVC,0.14,0.0,WeatherDisplay:10.37,2013-03-08 18:12:00,
2013-03-08 18:17:00,38.7,36.9,29.71,NW,314,4.6,4.6,93,0.00,BKN,OVC,0.14,0.0,WeatherDisplay:10.37,2013-03-08 18:17:00,
2013-03-08 18:22:00,38.7,36.9,29.71,WSW,252,2.3,2.3,93,0.00,BKN,OVC,0.14,0.0,WeatherDisplay:10.37,2013-03-08 18:22:00,
2013-03-08 18:27:00,38.7,36.9,29.72,WSW,238,3.5,3.5,93,0.00,BKN,OVC,0.14,0.0,WeatherDisplay:10.37,2013-03-08 18:27:00,
2013-03-08 18:32:00,38.6,36.8,29.72,SE,125,3.5,3.5,93,0.00,BKN,OVC,0.14,0.0,WeatherDisplay:10.37,2013-03-08 18:32:00,
2013-03-08 18:37:00,38.6,36.8,29.72,SE,132,4.0,4.0,93,0.00,BKN,OVC,0.14,0.0,WeatherDisplay:10.37,2013-03-08 18:37:00,
2013-03-08 18:43:00,38.6,36.8,29.72,SE,145,3.5,3.5,93,0.00,BKN,OVC,0.14,0.0,WeatherDisplay:10.37,2013-03-08 18:43:00,
2013-03-08 18:48:00,38.6,36.8,29.72,SSW,204,3.5,3.5,93,0.00,BKN,OVC,0.14,0.0,WeatherDisplay:10.37,2013-03-08 18:48:00,
2013-03-08 18:53:00,38.6,36.8,29.72,WSW,239,2.3,2.3,93,0.00,BKN,OVC,0.14,0.0,WeatherDisplay:10.37,2013-03-08 18:53:00,
2013-03-08 18:58:00,38.6,36.8,29.72,WNW,284,2.3,2.3,93,0.00,BKN,OVC,0.14,0.0,WeatherDisplay:10.37,2013-03-08 18:58:00,
2013-03-08 19:03:00,38.6,36.8,29.73,ESE,117,3.5,3.5,93,0.00,BKN,OVC,0.14,0.0,WeatherDisplay:10.37,2013-03-08 19:03:00,
2013-03-08 19:08:00,38.6,37.0,29.73,WNW,295,3.5,3.5,94,0.00,BKN,OVC,0.14,0.0,WeatherDisplay:10.37,2013-03-08 19:08:00,
2013-03-08 19:13:00,38.6,37.0,29.73,West,273,5.8,5.8,94,0.01,RA,OVC,0.15,0.0,WeatherDisplay:10.37,2013-03-08 19:13:00,
2013-03-08 19:18:00,38.6,36.8,29.73,East,89,4.6,4.6,93,0.01,-RA,OVC,0.15,0.0,WeatherDisplay:10.37,2013-03-08 19:18:00,
2013-03-08 19:23:00,38.6,36.8,29.73,SSW,210,3.5,3.5,93,0.01,-RA,OVC,0.15,0.0,WeatherDisplay:10.37,2013-03-08 19:23:00,
2013-03-08 19:28:00,38.6,36.8,29.73,NW,325,2.3,2.3,93,0.01,-RA,OVC,0.15,0.0,WeatherDisplay:10.37,2013-03-08 19:28:00,
2013-03-08 19:33:00,38.6,36.8,29.73,West,281,3.5,3.5,93,0.01,-RA,OVC,0.15,0.0,WeatherDisplay:10.37,2013-03-08 19:33:00,
2013-03-08 19:38:00,38.7,37.1,29.73,East,89,2.3,2.3,94,0.01,-RA,OVC,0.15,0.0,WeatherDisplay:10.37,2013-03-08 19:38:00,
2013-03-08 19:43:00,38.6,36.8,29.73,SSE,152,2.3,2.3,93,0.01,-RA,OVC,0.15,0.0,WeatherDisplay:10.37,2013-03-08 19:43:00,
2013-03-08 19:48:00,38.6,36.8,29.73,East,97,2.3,2.3,93,0.01,OVC,,0.15,0.0,WeatherDisplay:10.37,2013-03-08 19:48:00,
2013-03-08 19:53:00,38.6,36.8,29.73,WNW,293,2.3,2.3,93,0.01,OVC,,0.15,0.0,WeatherDisplay:10.37,2013-03-08 19:53:00,
2013-03-08 19:58:00,38.6,37.0,29.73,South,185,2.3,2.3,94,0.01,OVC,,0.15,0.0,WeatherDisplay:10.37,2013-03-08 19:58:00,
2013-03-08 20:03:00,38.6,37.0,29.73,SW,233,3.5,3.5,94,0.01,OVC,,0.15,0.0,WeatherDisplay:10.37,2013-03-08 20:03:00,
2013-03-08 20:08:00,38.5,36.9,29.73,WSW,253,3.5,3.5,94,0.01,OVC,,0.15,0.0,WeatherDisplay:10.37,2013-03-08 20:08:00,
2013-03-08 20:13:00,38.5,36.9,29.73,SE,127,1.2,1.2,94,0.00,OVC,,0.15,0.0,WeatherDisplay:10.37,2013-03-08 20:13:00,
2013-03-08 20:18:00,38.5,36.9,29.73,West,259,1.2,1.2,94,0.00,OVC,,0.15,0.0,WeatherDisplay:10.37,2013-03-08 20:18:00,
2013-03-08 20:23:00,38.5,36.9,29.73,West,276,3.0,3.0,94,0.00,OVC,,0.15,0.0,WeatherDisplay:10.37,2013-03-08 20:23:00,
2013-03-08 20:28:00,38.5,36.9,29.73,ESE,122,3.5,3.5,94,0.00,OVC,,0.15,0.0,WeatherDisplay:10.37,2013-03-08 20:28:00,
2013-03-08 20:33:00,38.4,36.8,29.73,SSW,198,3.5,3.5,94,0.00,-RA,OVC,0.15,0.0,WeatherDisplay:10.37,2013-03-08 20:33:00,
2013-03-08 20:38:00,38.4,36.8,29.73,SE,126,1.2,1.2,94,0.00,-RA,OVC,0.15,0.0,WeatherDisplay:10.37,2013-03-08 20:38:00,
2013-03-08 20:43:00,38.4,36.8,29.73,SW,224,3.0,3.0,94,0.00,-RA,OVC,0.15,0.0,WeatherDisplay:10.37,2013-03-08 20:43:00,
2013-03-08 20:48:00,38.4,36.8,29.73,West,277,1.2,1.2,94,0.00,-RA,OVC,0.15,0.0,WeatherDisplay:10.37,2013-03-08 20:48:00,
2013-03-08 20:53:00,38.3,36.7,29.73,NNW,330,3.5,3.5,94,0.00,-RA,OVC,0.15,0.0,WeatherDisplay:10.37,2013-03-08 20:53:00,
2013-03-08 20:58:00,38.3,36.7,29.73,South,170,3.5,3.5,94,0.00,-RA,OVC,0.15,0.0,WeatherDisplay:10.37,2013-03-08 20:58:00,
2013-03-08 21:04:00,38.3,36.7,29.73,SW,228,3.5,3.5,94,0.01,-RA,OVC,0.16,0.0,WeatherDisplay:10.37,2013-03-08 21:04:00,
2013-03-08 21:09:00,38.3,36.7,29.73,NE,41,11.5,11.5,94,0.01,-RA,OVC,0.16,0.0,WeatherDisplay:10.37,2013-03-08 21:09:00,
2013-03-08 21:14:00,38.3,36.7,29.73,WSW,250,8.1,8.1,94,0.01,-RA,OVC,0.16,0.0,WeatherDisplay:10.37,2013-03-08 21:14:00,
2013-03-08 21:19:00,38.3,36.7,29.73,SSW,193,2.3,2.3,94,0.01,-RA,OVC,0.16,0.0,WeatherDisplay:10.37,2013-03-08 21:19:00,
2013-03-08 21:24:00,38.3,36.7,29.73,SSW,194,3.5,3.5,94,0.01,-RA,OVC,0.16,0.0,WeatherDisplay:10.37,2013-03-08 21:24:00,
2013-03-08 21:29:00,38.2,36.6,29.73,SE,136,3.5,3.5,94,0.01,-RA,OVC,0.16,0.0,WeatherDisplay:10.37,2013-03-08 21:29:00,
2013-03-08 21:34:00,38.2,36.6,29.74,SSW,208,5.8,5.8,94,0.01,-RA,OVC,0.16,0.0,WeatherDisplay:10.37,2013-03-08 21:34:00,
2013-03-08 21:39:00,38.2,36.6,29.74,WNW,294,4.0,4.0,94,0.01,-RA,OVC,0.16,0.0,WeatherDisplay:10.37,2013-03-08 21:39:00,
2013-03-08 21:44:00,38.2,36.6,29.74,SE,124,2.3,2.3,94,0.01,-RA,OVC,0.16,0.0,WeatherDisplay:10.37,2013-03-08 21:44:00,
2013-03-08 21:49:00,38.2,36.6,29.74,NE,49,1.2,1.2,94,0.01,BKN,OVC,0.16,0.0,WeatherDisplay:10.37,2013-03-08 21:49:00,
2013-03-08 21:54:00,38.2,36.6,29.74,SSW,194,2.3,2.3,94,0.01,BKN,OVC,0.16,0.0,WeatherDisplay:10.37,2013-03-08 21:54:00,
2013-03-08 21:59:00,38.2,36.6,29.74,WSW,240,1.2,1.2,94,0.01,BKN,OVC,0.16,0.0,WeatherDisplay:10.37,2013-03-08 21:59:00,
2013-03-08 22:04:00,38.2,36.6,29.74,WSW,248,2.3,2.3,94,0.00,BKN,OVC,0.16,0.0,WeatherDisplay:10.37,2013-03-08 22:04:00,
2013-03-08 22:09:00,38.1,36.5,29.74,West,259,1.2,1.2,94,0.00,BKN,OVC,0.16,0.0,WeatherDisplay:10.37,2013-03-08 22:09:00,
2013-03-08 22:14:00,38.1,36.5,29.74,NW,305,3.5,3.5,94,0.00,BKN,OVC,0.16,0.0,WeatherDisplay:10.37,2013-03-08 22:14:00,
2013-03-08 22:19:00,38.1,36.3,29.74,NNW,335,1.2,1.2,93,0.00,BKN,OVC,0.16,0.0,WeatherDisplay:10.37,2013-03-08 22:19:00,
2013-03-08 22:24:00,38.1,36.3,29.74,East,86,0.0,0.0,93,0.00,BKN,OVC,0.16,0.0,WeatherDisplay:10.37,2013-03-08 22:24:00,
2013-03-08 22:29:00,38.1,36.5,29.74,WNW,296,3.5,3.5,94,0.00,BKN,OVC,0.16,0.0,WeatherDisplay:10.37,2013-03-08 22:29:00,
2013-03-08 22:34:00,38.1,36.5,29.75,West,274,3.5,3.5,94,0.00,BKN,OVC,0.16,0.0,WeatherDisplay:10.37,2013-03-08 22:34:00,
2013-03-08 22:39:00,38.0,36.4,29.75,ESE,123,3.5,3.5,94,0.00,BKN,OVC,0.16,0.0,WeatherDisplay:10.37,2013-03-08 22:39:00,
2013-03-08 22:44:00,38.1,36.5,29.75,WSW,248,2.3,2.3,94,0.00,BKN,OVC,0.16,0.0,WeatherDisplay:10.37,2013-03-08 22:44:00,
2013-03-08 22:49:00,38.1,36.5,29.75,ESE,113,2.3,0.0,94,0.00,BKN,OVC,0.16,0.0,WeatherDisplay:10.37,2013-03-08 22:49:00,
2013-03-08 22:54:00,38.1,36.5,29.75,SE,136,0.0,0.0,94,0.00,BKN,OVC,0.16,0.0,WeatherDisplay:10.37,2013-03-08 22:54:00,
2013-03-08 22:59:00,38.1,36.5,29.75,West,267,2.3,2.3,94,0.00,BKN,OVC,0.16,0.0,WeatherDisplay:10.37,2013-03-08 22:59:00,
2013-03-08 23:04:00,38.1,36.5,29.75,NW,326,1.2,1.2,94,0.00,BKN,OVC,0.16,0.0,WeatherDisplay:10.37,2013-03-08 23:04:00,
2013-03-08 23:09:00,38.1,36.5,29.75,SSE,155,2.0,2.0,94,0.00,BKN,OVC,0.16,0.0,WeatherDisplay:10.37,2013-03-08 23:09:00,
2013-03-08 23:14:00,38.1,36.5,29.75,WNW,297,1.2,1.2,94,0.00,BKN,OVC,0.16,0.0,WeatherDisplay:10.37,2013-03-08 23:14:00,
2013-03-08 23:19:00,38.1,36.3,29.75,SSW,204,5.0,5.0,93,0.00,BKN,OVC,0.16,0.0,WeatherDisplay:10.37,2013-03-08 23:19:00,
2013-03-08 23:24:00,38.1,36.3,29.75,WNW,293,1.2,1.2,93,0.00,BKN,OVC,0.16,0.0,WeatherDisplay:10.37,2013-03-08 23:24:00,
2013-03-08 23:29:00,38.1,36.3,29.75,South,170,1.2,1.2,93,0.00,BKN,OVC,0.16,0.0,WeatherDisplay:10.37,2013-03-08 23:29:00,
2013-03-08 23:34:00,38.1,36.3,29.75,ESE,120,2.3,2.3,93,0.00,BKN,OVC,0.16,0.0,WeatherDisplay:10.37,2013-03-08 23:34:00,
2013-03-08 23:39:00,38.1,36.5,29.75,WNW,283,2.3,2.3,94,0.00,BKN,OVC,0.16,0.0,WeatherDisplay:10.37,2013-03-08 23:39:00,
2013-03-08 23:44:00,38.1,36.5,29.74,NW,314,2.3,2.3,94,0.00,BKN,OVC,0.16,0.0,WeatherDisplay:10.37,2013-03-08 23:44:00,
2013-03-08 23:49:00,38.1,36.5,29.74,SSE,165,3.5,3.5,94,0.00,-DZ,OVC,0.16,0.0,WeatherDisplay:10.37,2013-03-08 23:49:00,
2013-03-08 23:54:00,38.1,36.5,29.75,WSW,240,5.8,5.8,94,0.00,-DZ,OVC,0.16,0.0,WeatherDisplay:10.37,2013-03-08 23:54:00,
2013-03-08 23:59:00,38.1,36.3,29.75,WNW,290,2.3,2.3,93,0.00,-DZ,OVC,0.16,0.0,WeatherDisplay:10.37,2013-03-08 23:59:00,